createdAt,value
2018-02-12T00:00:48.036Z,0.50
2018-02-12T00:03:15.689Z,0.63
2018-02-12T00:05:43.121Z,0.67
2018-02-12T00:08:10.565Z,0.62
2018-02-12T00:10:38.109Z,0.44
2018-02-12T00:13:05.541Z,0.61
2018-02-12T00:15:32.974Z,0.64
2018-02-12T00:18:00.636Z,0.53
2018-02-12T00:20:28.064Z,0.51
2018-02-12T00:22:55.497Z,0.55
2018-02-12T00:25:23.317Z,0.52
2018-02-12T00:27:50.757Z,0.57
2018-02-12T00:30:18.188Z,0.58
2018-02-12T00:32:45.892Z,0.69
2018-02-12T00:35:13.320Z,0.67
2018-02-12T00:37:40.760Z,0.80
2018-02-12T00:40:08.212Z,0.71
2018-02-12T00:42:35.644Z,0.67
2018-02-12T00:45:03.272Z,0.64
2018-02-12T00:47:30.704Z,0.70
2018-02-12T00:49:58.134Z,0.58
2018-02-12T00:52:25.605Z,0.66
2018-02-12T00:54:53.037Z,0.68
2018-02-12T00:57:20.657Z,0.55
2018-02-12T00:59:48.088Z,0.45
2018-02-12T01:02:15.532Z,0.41
2018-02-12T01:04:42.984Z,0.26
2018-02-12T01:07:10.413Z,0.41
2018-02-12T01:09:37.885Z,0.54
2018-02-12T01:12:05.320Z,0.93
2018-02-12T01:14:32.755Z,1.54
2018-02-12T01:17:00.206Z,2.08
2018-02-12T01:19:27.664Z,2.27
2018-02-12T01:21:55.492Z,2.47
2018-02-12T01:24:22.938Z,2.36
2018-02-12T01:26:50.372Z,2.43
2018-02-12T01:29:17.825Z,2.42
2018-02-12T01:31:45.252Z,2.45
2018-02-12T01:34:13.012Z,2.50
2018-02-12T01:36:40.444Z,2.66
2018-02-12T01:39:07.878Z,2.58
2018-02-12T01:41:35.340Z,2.45
2018-02-12T01:44:02.772Z,2.48
2018-02-12T01:46:30.605Z,2.39
2018-02-12T01:48:58.033Z,2.45
2018-02-12T01:51:25.468Z,2.40
2018-02-12T01:53:52.928Z,2.52
2018-02-12T01:56:20.364Z,2.46
2018-02-12T01:58:47.824Z,2.60
2018-02-12T02:01:15.252Z,2.52
2018-02-12T02:03:42.687Z,2.80
2018-02-12T02:06:10.140Z,2.62
2018-02-12T02:08:37.569Z,2.60
2018-02-12T02:11:05.041Z,2.73
2018-02-12T02:13:32.489Z,2.83
2018-02-12T02:15:59.920Z,2.79
2018-02-12T02:18:27.373Z,2.98
2018-02-12T02:20:54.800Z,2.79
2018-02-12T02:23:22.452Z,2.69
2018-02-12T02:25:49.888Z,2.96
2018-02-12T02:28:17.333Z,3.18
2018-02-12T02:30:44.784Z,2.91
2018-02-12T02:33:12.216Z,2.86
2018-02-12T02:35:39.768Z,2.76
2018-02-12T02:38:07.209Z,2.90
2018-02-12T02:40:34.663Z,2.72
2018-02-12T02:43:02.118Z,2.85
2018-02-12T02:45:29.554Z,2.87
2018-02-12T02:47:57.241Z,2.81
2018-02-12T02:50:24.680Z,2.75
2018-02-12T02:52:52.112Z,3.07
2018-02-12T02:55:19.568Z,2.98
2018-02-12T02:57:47.002Z,2.89
2018-02-12T03:00:14.808Z,2.80
2018-02-12T03:02:42.245Z,2.82
2018-02-12T03:05:09.684Z,2.97
2018-02-12T03:07:37.136Z,3.10
2018-02-12T03:10:04.598Z,2.90
2018-02-12T03:12:32.121Z,2.87
2018-02-12T03:14:59.551Z,2.92
2018-02-12T03:17:26.997Z,2.76
2018-02-12T03:19:54.450Z,3.04
2018-02-12T03:22:21.884Z,2.85
2018-02-12T03:24:49.476Z,2.76
2018-02-12T03:27:16.913Z,2.74
2018-02-12T03:29:44.342Z,2.90
2018-02-12T03:32:11.798Z,3.00
2018-02-12T03:34:39.228Z,2.78
2018-02-12T03:37:06.866Z,2.79
2018-02-12T03:39:34.312Z,2.94
2018-02-12T03:42:01.744Z,3.07
2018-02-12T03:44:29.197Z,2.93
2018-02-12T03:46:56.633Z,2.97
2018-02-12T03:49:24.354Z,2.85
2018-02-12T03:51:51.784Z,2.58
2018-02-12T03:54:19.213Z,2.54
2018-02-12T03:56:46.670Z,2.63
2018-02-12T03:59:14.126Z,2.72
2018-02-12T04:01:42.589Z,2.76
2018-02-12T04:04:10.021Z,2.59
2018-02-12T04:06:37.449Z,2.71
2018-02-12T04:09:04.931Z,2.79
2018-02-12T04:11:32.365Z,2.55
2018-02-12T04:14:00.077Z,2.47
2018-02-12T04:16:27.509Z,2.49
2018-02-12T04:18:54.942Z,2.83
2018-02-12T04:21:22.397Z,2.64
2018-02-12T04:23:49.852Z,2.71
2018-02-12T04:26:17.308Z,2.75
2018-02-12T04:28:44.752Z,2.73
2018-02-12T04:31:12.209Z,2.62
2018-02-12T04:33:39.674Z,2.52
2018-02-12T04:36:07.105Z,2.65
2018-02-12T04:38:34.927Z,2.43
2018-02-12T04:41:02.352Z,2.39
2018-02-12T04:43:29.789Z,2.33
2018-02-12T04:45:57.309Z,2.33
2018-02-12T04:48:24.741Z,2.31
2018-02-12T04:50:52.417Z,2.21
2018-02-12T04:53:19.848Z,2.11
2018-02-12T04:55:47.280Z,2.11
2018-02-12T04:58:14.757Z,2.25
2018-02-12T05:00:42.189Z,2.13
2018-02-12T05:03:09.668Z,2.18
2018-02-12T05:05:37.102Z,2.19
2018-02-12T05:08:04.544Z,2.17
2018-02-12T05:10:32.006Z,2.26
2018-02-12T05:12:59.440Z,2.22
2018-02-12T05:15:27.070Z,2.40
2018-02-12T05:17:54.514Z,2.51
2018-02-12T05:20:21.958Z,2.30
2018-02-12T05:22:49.423Z,2.16
2018-02-12T05:25:16.872Z,2.04
2018-02-12T05:27:44.336Z,2.01
2018-02-12T05:30:11.817Z,2.11
2018-02-12T05:32:39.262Z,2.08
2018-02-12T05:35:06.722Z,2.21
2018-02-12T05:37:34.158Z,2.16
2018-02-12T05:40:01.842Z,2.05
2018-02-12T05:42:29.277Z,2.10
2018-02-12T05:44:56.713Z,2.08
2018-02-12T05:47:24.168Z,1.94
2018-02-12T05:49:51.602Z,1.97
2018-02-12T05:52:19.225Z,1.88
2018-02-12T05:54:46.660Z,1.69
2018-02-12T05:57:14.091Z,1.55
2018-02-12T05:59:41.552Z,1.47
2018-02-12T06:02:08.995Z,1.70
2018-02-12T06:04:36.609Z,1.99
2018-02-12T06:07:04.045Z,2.07
2018-02-12T06:09:31.499Z,2.05
2018-02-12T06:11:58.956Z,2.16
2018-02-12T06:14:26.512Z,2.13
2018-02-12T06:16:54.011Z,2.29
2018-02-12T06:19:21.448Z,2.48
2018-02-12T06:21:48.890Z,2.74
2018-02-12T06:24:16.354Z,2.61
2018-02-12T06:26:43.801Z,2.51
2018-02-12T06:29:11.284Z,2.45
2018-02-12T06:31:38.738Z,2.48
2018-02-12T06:34:06.181Z,2.59
2018-02-12T06:36:33.678Z,2.40
2018-02-12T06:39:01.093Z,2.67
2018-02-12T06:41:28.852Z,2.53
2018-02-12T06:43:56.285Z,2.47
2018-02-12T06:46:23.728Z,2.45
2018-02-12T06:48:51.186Z,2.43
2018-02-12T06:51:18.624Z,2.42
2018-02-12T06:53:46.252Z,2.52
2018-02-12T06:56:13.689Z,2.58
2018-02-12T06:58:41.131Z,2.57
2018-02-12T07:01:08.600Z,2.57
2018-02-12T07:03:36.041Z,2.57
2018-02-12T07:06:03.744Z,2.63
2018-02-12T07:08:31.181Z,2.61
2018-02-12T07:10:58.621Z,2.62
2018-02-12T07:13:26.081Z,2.64
2018-02-12T07:15:53.538Z,2.59
2018-02-12T07:18:21.009Z,2.58
2018-02-12T07:20:48.472Z,2.65
2018-02-12T07:23:15.948Z,2.65
2018-02-12T07:25:43.411Z,2.61
2018-02-12T07:28:10.851Z,2.59
2018-02-12T07:30:38.508Z,2.56
2018-02-12T07:33:05.949Z,2.65
2018-02-12T07:35:33.388Z,2.56
2018-02-12T07:38:00.844Z,2.56
2018-02-12T07:40:28.288Z,2.63
2018-02-12T07:42:56.196Z,2.69
2018-02-12T07:45:23.641Z,2.85
2018-02-12T07:47:51.078Z,2.95
2018-02-12T07:50:18.542Z,2.99
2018-02-12T07:52:45.989Z,3.39
2018-02-12T07:55:13.445Z,3.49
2018-02-12T07:57:40.877Z,3.70
2018-02-12T08:00:08.336Z,3.60
2018-02-12T08:02:35.793Z,3.73
2018-02-12T08:05:03.236Z,3.74
2018-02-12T08:07:30.714Z,4.10
2018-02-12T08:09:58.152Z,4.05
2018-02-12T08:12:25.591Z,3.59
2018-02-12T08:14:53.044Z,3.21
2018-02-12T08:17:20.489Z,3.55
2018-02-12T08:19:48.160Z,3.17
2018-02-12T08:22:15.597Z,3.02
2018-02-12T08:24:43.030Z,3.25
2018-02-12T08:27:10.492Z,3.18
2018-02-12T08:29:37.925Z,3.18
2018-02-12T08:32:05.540Z,3.36
2018-02-12T08:34:32.973Z,3.16
2018-02-12T08:37:00.413Z,3.18
2018-02-12T08:39:27.927Z,2.96
2018-02-12T08:41:55.381Z,3.02
2018-02-12T08:44:23.022Z,2.80
2018-02-12T08:46:50.456Z,2.84
2018-02-12T08:49:17.898Z,3.03
2018-02-12T08:51:45.353Z,2.95
2018-02-12T08:54:12.797Z,2.92
2018-02-12T08:56:40.408Z,2.88
2018-02-12T08:59:07.857Z,3.00
2018-02-12T09:01:35.297Z,3.02
2018-02-12T09:04:02.757Z,3.08
2018-02-12T09:06:30.197Z,3.22
2018-02-12T09:08:57.902Z,3.22
2018-02-12T09:11:25.340Z,3.42
2018-02-12T09:13:52.777Z,3.31
2018-02-12T09:16:20.249Z,3.53
2018-02-12T09:18:47.684Z,3.46
2018-02-12T09:21:15.480Z,3.16
2018-02-12T09:23:42.929Z,3.33
2018-02-12T09:26:10.361Z,3.42
2018-02-12T09:28:37.825Z,3.39
2018-02-12T09:31:05.263Z,3.43
2018-02-12T09:33:32.865Z,3.40
2018-02-12T09:36:00.325Z,3.43
2018-02-12T09:38:27.765Z,3.54
2018-02-12T09:40:55.221Z,3.54
2018-02-12T09:43:22.668Z,3.68
2018-02-12T09:45:50.258Z,3.83
2018-02-12T09:48:17.695Z,3.85
2018-02-12T09:50:45.136Z,4.03
2018-02-12T09:53:12.596Z,4.17
2018-02-12T09:55:40.035Z,4.28
2018-02-12T09:58:07.524Z,4.35
2018-02-12T10:00:34.961Z,4.29
2018-02-12T10:03:02.471Z,4.22
2018-02-12T10:05:29.928Z,4.46
2018-02-12T10:07:57.386Z,4.50
2018-02-12T10:10:25.136Z,4.33
2018-02-12T10:12:52.640Z,4.36
2018-02-12T10:15:20.081Z,4.36
2018-02-12T10:17:47.541Z,4.33
2018-02-12T10:20:14.976Z,4.18
2018-02-12T10:22:42.492Z,4.36
2018-02-12T10:25:09.929Z,4.22
2018-02-12T10:27:37.385Z,4.27
2018-02-12T10:30:04.844Z,4.17
2018-02-12T10:32:32.285Z,4.24
2018-02-12T10:35:00.003Z,4.49
2018-02-12T10:37:27.458Z,4.55
2018-02-12T10:39:54.901Z,4.51
2018-02-12T10:42:22.369Z,4.58
2018-02-12T10:44:49.804Z,4.88
2018-02-12T10:47:18.872Z,4.87
2018-02-12T10:49:46.376Z,5.08
2018-02-12T10:52:13.833Z,4.62
2018-02-12T10:54:41.303Z,4.68
2018-02-12T10:57:08.781Z,4.65
2018-02-12T10:59:36.617Z,4.72
2018-02-12T11:02:04.072Z,4.64
2018-02-12T11:04:31.504Z,4.77
2018-02-12T11:06:58.965Z,4.75
2018-02-12T11:09:26.410Z,4.55
2018-02-12T11:11:54.005Z,4.62
2018-02-12T11:14:21.484Z,4.51
2018-02-12T11:16:48.909Z,4.40
2018-02-12T11:19:16.366Z,4.50
2018-02-12T11:21:43.845Z,4.60
2018-02-12T11:24:11.643Z,4.64
2018-02-12T11:26:39.077Z,4.59
2018-02-12T11:29:06.517Z,4.81
2018-02-12T11:31:33.980Z,4.65
2018-02-12T11:34:01.430Z,4.53
2018-02-12T11:36:29.073Z,4.49
2018-02-12T11:38:56.525Z,4.61
2018-02-12T11:41:23.969Z,4.55
2018-02-12T11:43:51.464Z,4.74
2018-02-12T11:46:18.913Z,4.78
2018-02-12T11:48:46.765Z,4.80
2018-02-12T11:51:14.264Z,4.85
2018-02-12T11:53:41.661Z,5.25
2018-02-12T11:56:09.117Z,5.29
2018-02-12T11:58:36.567Z,5.38
2018-02-12T12:01:04.033Z,5.48
2018-02-12T12:03:31.473Z,5.23
2018-02-12T12:05:58.914Z,5.09
2018-02-12T12:08:26.382Z,5.24
2018-02-12T12:10:53.823Z,5.31
2018-02-12T17:55:05.730Z,1.59
2018-02-12T17:57:33.690Z,1.31
2018-02-12T18:00:01.149Z,1.23
2018-02-12T18:02:28.588Z,1.12
2018-02-12T18:04:56.082Z,1.12
2018-02-12T18:07:23.657Z,0.92
2018-02-12T18:09:51.516Z,0.91
2018-02-12T18:12:19.071Z,0.95
2018-02-12T18:14:46.568Z,0.91
2018-02-12T18:17:14.073Z,0.64
2018-02-12T18:19:41.508Z,0.39
2018-02-12T18:22:09.213Z,0.54
2018-02-12T18:24:36.676Z,0.45
2018-02-12T18:27:04.160Z,0.40
2018-02-12T18:29:31.637Z,0.71
2018-02-12T18:31:59.073Z,0.68
2018-02-12T18:34:26.596Z,0.67
2018-02-12T18:36:54.033Z,0.62
2018-02-12T18:39:21.481Z,0.77
2018-02-12T18:41:49.213Z,0.78
2018-02-12T18:44:16.741Z,0.93
2018-02-12T18:46:44.554Z,1.26
2018-02-12T18:49:12.126Z,0.98
2018-02-12T18:51:40.159Z,1.13
2018-02-12T18:54:07.984Z,0.67
2018-02-12T18:56:35.501Z,0.77
2018-02-12T18:59:03.168Z,0.76
2018-02-12T19:01:30.601Z,0.73
2018-02-12T19:03:58.420Z,0.56
2018-02-12T19:06:25.880Z,0.51
2018-02-12T19:08:53.337Z,0.43
2018-02-12T19:11:21.027Z,0.51
2018-02-12T19:13:48.463Z,0.34
2018-02-12T19:16:15.900Z,0.33
2018-02-12T19:18:43.360Z,0.15
2018-02-12T19:21:10.810Z,0.09
2018-02-12T19:23:38.264Z,-0.12
2018-02-12T19:26:05.845Z,-0.07
2018-02-12T19:28:33.284Z,-0.08
2018-02-12T19:31:00.735Z,-0.08
2018-02-12T19:33:28.337Z,0.07
2018-02-12T19:35:55.786Z,0.10
2018-02-12T19:38:23.240Z,-0.10
2018-02-12T19:40:50.860Z,-0.22
2018-02-12T19:43:18.449Z,-0.36
2018-02-12T19:45:45.892Z,-0.60
2018-02-12T19:48:13.365Z,-0.47
2018-02-12T19:50:40.865Z,-0.61
2018-02-12T19:53:08.530Z,-0.58
2018-02-12T19:55:36.001Z,-0.50
2018-02-12T19:58:03.445Z,-0.45
2018-02-12T20:00:30.935Z,-0.47
2018-02-12T20:02:58.382Z,-0.40
2018-02-12T20:05:26.814Z,-0.14
2018-02-12T20:07:54.272Z,-0.40
2018-02-12T20:10:21.720Z,-0.24
2018-02-12T20:12:49.193Z,-0.50
2018-02-12T20:15:16.641Z,-0.41
2018-02-12T20:17:44.372Z,-0.46
2018-02-12T20:20:11.813Z,-0.40
2018-02-12T20:22:39.258Z,-0.34
2018-02-12T20:25:06.746Z,-0.60
2018-02-12T20:27:34.193Z,-0.66
2018-02-12T20:30:01.664Z,-0.65
2018-02-12T20:32:29.187Z,-0.74
2018-02-12T20:34:56.641Z,-0.71
2018-02-12T20:37:24.105Z,-1.08
2018-02-12T20:39:51.626Z,-1.09
2018-02-12T20:42:19.245Z,-1.23
2018-02-12T20:44:46.707Z,-1.27
2018-02-12T20:47:14.161Z,-1.33
2018-02-12T20:49:41.628Z,-1.35
2018-02-12T20:52:09.101Z,-1.31
2018-02-12T20:54:36.576Z,-1.33
2018-02-12T20:57:04.016Z,-1.38
2018-02-12T20:59:31.736Z,-1.36
2018-02-12T21:01:59.184Z,-1.33
2018-02-12T21:04:26.641Z,-1.25
2018-02-12T21:06:54.105Z,-1.27
2018-02-12T21:09:21.548Z,-1.25
2018-02-12T21:11:49.537Z,-1.24
2018-02-12T21:14:16.976Z,-1.43
2018-02-12T21:16:44.414Z,-1.53
2018-02-12T21:19:11.885Z,-1.46
2018-02-12T21:21:39.328Z,-1.59
2018-02-12T21:24:06.793Z,-1.64
2018-02-12T21:26:34.253Z,-1.39
2018-02-12T21:29:01.732Z,-1.43
2018-02-12T21:31:29.192Z,-1.28
2018-02-12T21:33:56.629Z,-1.26
2018-02-12T21:36:24.306Z,-1.51
2018-02-12T21:38:51.753Z,-1.41
2018-02-12T21:41:19.196Z,-1.44
2018-02-12T21:43:46.673Z,-1.44
2018-02-12T21:46:14.116Z,-1.42
2018-02-12T21:48:41.840Z,-1.57
2018-02-12T21:51:09.277Z,-1.66
2018-02-12T21:53:36.752Z,-1.69
2018-02-12T21:56:04.401Z,-1.89
2018-02-12T21:58:31.880Z,-1.91
2018-02-12T22:00:59.346Z,-1.88
2018-02-12T22:03:26.812Z,-1.98
2018-02-12T22:05:54.287Z,-1.89
2018-02-12T22:08:21.904Z,-1.95
2018-02-12T22:10:49.349Z,-2.00
2018-02-12T22:13:16.785Z,-2.00
2018-02-12T22:15:44.278Z,-2.04
2018-02-12T22:18:11.739Z,-1.91
2018-02-12T22:20:39.434Z,-1.87
2018-02-12T22:23:06.884Z,-1.72
2018-02-12T22:25:34.324Z,-1.57
2018-02-12T22:28:01.800Z,-1.62
2018-02-12T22:30:29.241Z,-1.62
2018-02-12T22:32:57.009Z,-1.48
2018-02-12T22:35:24.449Z,-1.47
2018-02-12T22:37:51.940Z,-1.43
2018-02-12T22:40:19.380Z,-1.34
2018-02-12T22:42:46.844Z,-1.59
2018-02-12T22:45:14.324Z,-1.73
2018-02-12T22:47:41.764Z,-1.66
2018-02-12T22:50:09.211Z,-1.63
2018-02-12T22:52:36.668Z,-1.66
2018-02-12T22:55:04.108Z,-1.56
2018-02-12T22:57:31.584Z,-1.51
2018-02-12T22:59:59.020Z,-1.41
2018-02-12T23:02:26.469Z,-1.51
2018-02-12T23:04:53.969Z,-1.61
2018-02-12T23:07:21.412Z,-1.68
2018-02-12T23:09:49.056Z,-1.45
2018-02-12T23:12:16.496Z,-1.45
2018-02-12T23:14:43.938Z,-1.45
2018-02-12T23:17:14.861Z,-1.43
2018-02-12T23:19:42.321Z,-1.46
2018-02-12T23:22:09.796Z,-1.42
2018-02-12T23:24:37.248Z,-1.44
2018-02-12T23:27:04.693Z,-1.37
2018-02-12T23:29:32.177Z,-1.30
2018-02-12T23:31:59.624Z,-1.26
2018-02-12T23:34:27.336Z,-1.31
2018-02-12T23:36:54.808Z,-1.53
2018-02-12T23:39:22.260Z,-1.62
2018-02-12T23:41:49.952Z,-1.58
2018-02-12T23:44:17.392Z,-1.58
2018-02-12T23:46:44.832Z,-1.52
2018-02-12T23:49:12.684Z,-1.53
2018-02-12T23:51:40.123Z,-1.61
2018-02-12T23:54:07.569Z,-1.91
2018-02-12T23:56:37.023Z,-1.98
2018-02-12T23:59:04.484Z,-1.96
